📊 Raw Sensor Data

Showing records 32651 to 32675 of 84,718 total

ID Distance (ft) Battery V Battery A Int Temp (°F) Int Humid (%) Ext Temp (°F) Solar V RSSI SNR Time Stamp
52080 15.1 4.01 5 107 41 91 5.10 -74 8 09/15/2025 02:45 PM
52079 15.1 4.01 0 106 41 94 5.20 -74 8 09/15/2025 02:30 PM
52078 15.1 4.14 5 104 40 90 5.10 -76 8 09/15/2025 02:15 PM
52077 15.1 4.01 0 102 41 90 5.10 -74 8 09/15/2025 02:00 PM
52076 15.1 4.02 5 99 41 88 5.10 -74 8 09/15/2025 01:45 PM
52075 15.0 4.01 5 98 41 90 5.10 -73 8 09/15/2025 01:30 PM
52074 15.0 4.03 5 96 42 88 5.10 -74 8 09/15/2025 01:15 PM
52073 15.1 4.01 0 94 42 86 5.10 -74 8 09/15/2025 01:00 PM
52072 14.1 4.01 0 93 41 86 5.10 -72 7 09/15/2025 12:30 PM
52071 15.0 4.01 0 92 41 82 5.10 -74 8 09/15/2025 12:15 PM
52070 15.0 4.01 5 91 41 86 5.10 -74 7 09/15/2025 12:00 PM
52069 15.0 4.01 0 88 42 83 5.10 -73 8 09/15/2025 11:45 AM
52068 15.0 4.01 5 87 41 82 5.10 -74 8 09/15/2025 11:30 AM
52067 13.9 4.01 0 87 40 81 5.10 -73 8 09/15/2025 11:15 AM
52066 15.1 4.01 0 85 40 85 5.10 -74 8 09/15/2025 11:00 AM
52065 15.1 4.01 0 83 40 85 5.10 -74 8 09/15/2025 10:45 AM
52064 15.2 4.01 0 80 40 82 5.10 -75 8 09/15/2025 10:30 AM
52063 13.9 4.01 5 78 40 78 5.10 -72 7 09/15/2025 10:15 AM
52062 15.1 4.01 0 76 40 81 5.10 -73 7 09/15/2025 10:00 AM
52061 15.1 4.11 5 73 40 78 5.10 -72 8 09/15/2025 09:45 AM
52060 15.1 4.01 5 71 40 76 5.10 -72 7 09/15/2025 09:30 AM
52059 15.0 4.01 5 68 40 76 5.10 -72 7 09/15/2025 09:15 AM
52058 15.0 4.01 0 66 41 74 5.10 -72 7 09/15/2025 09:00 AM
52057 15.0 4.01 5 63 42 68 5.10 -70 8 09/15/2025 08:45 AM
52056 14.9 4.01 5 62 42 68 5.10 -71 8 09/15/2025 08:30 AM